Time;durP1;ratioP1;P1;durP2;ratioP2;P2;SDS_P1;SDS_P2;PMS_P1;PMS_P2;Temp;Humidity;BMP_temperature;BMP_pressure;BME280_temperature;BME280_humidity;BME280_pressure;Samples;Min_cycle;Max_cycle;Signal;HPM_P1;HPM_P2
2022/10/25 00:01:35;;;;;;;1.05;0.80;;;;;;;12.88;84.47;98190.63;4990715;28;20112;-89
2022/10/25 00:04:01;;;;;;;2.53;1.10;;;;;;;12.87;84.28;98176.66;4993403;28;20065;-89
2022/10/25 00:06:27;;;;;;;1.80;0.80;;;;;;;12.83;83.94;98180.72;5004560;28;20038;-89
2022/10/25 00:08:52;;;;;;;3.90;1.00;;;;;;;12.84;84.65;98187.63;5010343;28;20064;-89
2022/10/25 00:11:23;;;;;;;1.20;0.90;;;;;;;12.79;84.19;98185.63;4994915;28;20045;-89
2022/10/25 00:13:52;;;;;;;1.38;0.98;;;;;;;12.83;84.57;98191.25;5000164;28;20109;-90
2022/10/25 00:16:23;;;;;;;2.70;0.70;;;;;;;12.82;84.95;98187.81;5000915;28;20029;-89
2022/10/25 00:18:58;;;;;;;;;;;;;;;12.81;84.90;98195.94;5006993;28;20092;-90
2022/10/25 00:21:24;;;;;;;2.22;0.60;;;;;;;12.80;84.64;98187.22;5000126;28;19957;-89
2022/10/25 00:23:51;;;;;;;2.53;0.95;;;;;;;12.79;85.05;98180.38;4999099;28;20046;-89
2022/10/25 00:26:18;;;;;;;1.05;0.90;;;;;;;12.79;84.34;98190.09;4997306;28;20034;-89
2022/10/25 00:28:46;;;;;;;0.80;0.80;;;;;;;12.78;85.62;98193.75;4998835;28;20778;-89
2022/10/25 00:31:16;;;;;;;1.75;1.00;;;;;;;12.81;85.21;98180.16;5003641;28;20038;-89
2022/10/25 00:33:42;;;;;;;1.70;0.80;;;;;;;12.84;85.68;98187.63;5008666;28;20038;-90
2022/10/25 00:36:19;;;;;;;3.55;1.08;;;;;;;12.82;86.25;98187.00;4999015;28;20430;-90
2022/10/25 00:38:45;;;;;;;3.70;0.93;;;;;;;12.67;84.75;98181.25;5005278;28;20044;-90
2022/10/25 00:41:14;;;;;;;1.70;0.85;;;;;;;12.70;85.14;98194.78;5002609;28;20034;-89
2022/10/25 00:43:43;;;;;;;1.00;0.90;;;;;;;12.73;86.00;98201.47;5005309;28;20089;-88
2022/10/25 00:46:23;;;;;;;2.92;2.35;;;;;;;12.65;84.64;98185.88;5001758;28;20108;-89
2022/10/25 00:49:14;;;;;;;0.75;0.75;;;;;;;12.74;84.44;98205.69;4996510;28;20033;-89
2022/10/25 00:51:57;;;;;;;0.73;0.60;;;;;;;12.69;85.01;98195.00;4995004;28;20049;-89
2022/10/25 00:54:29;;;;;;;1.70;0.90;;;;;;;12.69;84.48;98206.31;4999202;28;20042;-89
2022/10/25 00:57:01;;;;;;;0.85;0.85;;;;;;;12.65;84.82;98204.31;5001351;28;20504;-89
2022/10/25 00:59:27;;;;;;;2.75;0.75;;;;;;;12.65;85.91;98204.31;4995799;28;20106;-89
2022/10/25 01:01:54;;;;;;;3.58;0.90;;;;;;;12.58;85.39;98205.16;4999780;28;20052;-90
2022/10/25 01:04:27;;;;;;;1.38;0.75;;;;;;;12.62;85.00;98210.00;5006036;28;20037;-89
2022/10/25 01:06:53;;;;;;;0.70;0.70;;;;;;;12.57;85.53;98208.81;4999095;28;20132;-90
2022/10/25 01:09:30;;;;;;;2.05;0.80;;;;;;;12.53;84.90;98207.63;5001650;28;20066;-90
2022/10/25 01:11:56;;;;;;;1.23;0.65;;;;;;;12.46;85.30;98211.28;4996929;28;20042;-89
2022/10/25 01:14:23;;;;;;;2.10;0.80;;;;;;;12.46;85.77;98212.09;4994731;28;20113;-90
2022/10/25 01:16:57;;;;;;;1.40;1.00;;;;;;;12.45;85.58;98207.84;5006154;28;20040;-89
2022/10/25 01:20:15;;;;;;;0.80;0.80;;;;;;;12.39;85.01;98216.56;5004447;28;20085;-89
2022/10/25 01:23:16;;;;;;;0.95;0.70;;;;;;;12.39;85.38;98203.41;5000071;28;20117;-89
2022/10/25 01:26:15;;;;;;;2.92;0.90;;;;;;;12.33;86.15;98196.38;5003741;28;20064;-89
2022/10/25 01:29:18;;;;;;;1.80;0.90;;;;;;;12.38;85.98;98209.69;4997120;28;20101;-89
2022/10/25 01:31:56;;;;;;;3.33;0.90;;;;;;;12.35;85.51;98209.28;4994635;28;20523;-89
2022/10/25 01:34:47;;;;;;;2.72;1.00;;;;;;;12.33;85.86;98210.31;4994886;28;20030;-89
2022/10/25 01:37:25;;;;;;;1.95;0.82;;;;;;;12.30;84.95;98202.06;5006311;28;20034;-89
2022/10/25 01:40:05;;;;;;;1.20;0.90;;;;;;;12.29;84.87;98211.75;4994371;28;20030;-89
2022/10/25 01:42:41;;;;;;;1.65;0.85;;;;;;;12.31;84.99;98214.19;5001580;28;20393;-89
2022/10/25 01:45:18;;;;;;;1.90;0.80;;;;;;;12.30;85.50;98208.13;4995335;28;20034;-89
2022/10/25 01:47:54;;;;;;;1.35;0.80;;;;;;;12.33;85.45;98212.94;4993677;28;20518;-89
2022/10/25 01:50:28;;;;;;;1.92;0.80;;;;;;;12.34;85.30;98219.00;5002129;28;20034;-89
2022/10/25 01:52:54;;;;;;;1.75;0.80;;;;;;;12.35;85.16;98219.81;4993968;28;20038;-89
2022/10/25 01:55:31;;;;;;;1.40;0.82;;;;;;;12.28;84.79;98219.84;4998131;28;20038;-89
2022/10/25 01:58:16;;;;;;;2.00;0.95;;;;;;;12.31;85.05;98220.25;5000143;28;20072;-89
2022/10/25 02:01:10;;;;;;;1.42;0.80;;;;;;;12.37;84.72;98221.25;5004134;28;20085;-89
2022/10/25 02:04:14;;;;;;;2.17;0.80;;;;;;;12.28;85.49;98209.31;5010115;28;20048;-89
2022/10/25 02:07:37;;;;;;;2.30;0.85;;;;;;;12.29;85.40;98226.72;4996738;28;20061;-90
2022/10/25 02:10:15;;;;;;;2.92;1.17;;;;;;;12.23;85.40;98222.28;4990755;28;20105;-89
2022/10/25 02:13:11;;;;;;;3.35;0.85;;;;;;;12.17;85.88;98217.84;5005363;28;20125;-89
2022/10/25 02:15:53;;;;;;;2.58;0.95;;;;;;;12.08;86.14;98213.84;5003966;28;20038;-89
2022/10/25 02:18:24;;;;;;;;;;;;;;;12.04;86.07;98219.50;5000979;28;20034;-89
2022/10/25 02:20:52;;;;;;;;;;;;;;;12.04;86.31;98218.69;5003490;28;20269;-89
2022/10/25 02:23:21;;;;;;;1.35;0.82;;;;;;;12.02;86.73;98216.28;5002475;28;20427;-89
2022/10/25 02:25:48;;;;;;;2.55;1.05;;;;;;;11.99;87.07;98216.66;5004891;28;20038;-89
2022/10/25 02:28:18;;;;;;;2.28;0.77;;;;;;;11.96;86.37;98208.41;5019721;28;20045;-89
2022/10/25 02:30:44;;;;;;;1.27;0.70;;;;;;;11.96;87.00;98211.03;5009029;28;20034;-90
2022/10/25 02:33:11;;;;;;;2.28;0.88;;;;;;;11.94;87.09;98213.06;5001310;28;20088;-90
2022/10/25 02:35:37;;;;;;;1.83;0.82;;;;;;;11.95;86.73;98210.22;4993576;28;20060;-89
2022/10/25 02:38:03;;;;;;;1.55;0.85;;;;;;;11.95;86.77;98214.69;5000957;28;20038;-89
2022/10/25 02:40:29;;;;;;;0.75;0.75;;;;;;;11.93;86.35;98204.34;5005293;28;20056;-89
2022/10/25 02:42:54;;;;;;;1.20;0.88;;;;;;;11.82;86.17;98199.75;4999836;28;20034;-90
2022/10/25 02:45:20;;;;;;;3.70;0.90;;;;;;;11.82;86.57;98194.50;4995956;28;20174;-89
2022/10/25 02:47:45;;;;;;;1.20;0.77;;;;;;;11.88;86.93;98204.19;4998370;28;20048;-89
2022/10/25 02:50:11;;;;;;;1.77;0.75;;;;;;;11.87;86.85;98201.75;5004195;28;20093;-89
2022/10/25 02:52:36;;;;;;;1.75;0.90;;;;;;;11.85;86.75;98212.47;4999392;28;20042;-90
2022/10/25 02:55:02;;;;;;;2.47;0.80;;;;;;;11.76;86.81;98216.31;4998909;28;20030;-89
2022/10/25 02:57:36;;;;;;;1.67;0.95;;;;;;;11.72;87.36;98215.88;4997514;28;20712;-90
2022/10/25 03:00:05;;;;;;;2.35;0.88;;;;;;;11.75;87.46;98219.91;5003937;28;20037;-89
2022/10/25 03:02:31;;;;;;;2.42;0.90;;;;;;;11.67;87.56;98217.50;5004294;28;20042;-89
2022/10/25 03:04:56;;;;;;;1.65;0.90;;;;;;;11.67;87.37;98228.00;4998332;28;20113;-90
2022/10/25 03:07:22;;;;;;;1.20;1.00;;;;;;;11.60;87.77;98217.50;4997500;28;20034;-89
2022/10/25 03:09:47;;;;;;;2.03;0.85;;;;;;;11.66;87.37;98234.28;4995958;28;20545;-89
2022/10/25 03:12:13;;;;;;;1.77;0.90;;;;;;;11.64;87.46;98225.81;4997370;28;20030;-89
2022/10/25 03:14:38;;;;;;;1.63;0.90;;;;;;;11.65;87.37;98224.78;5002374;28;20482;-89
2022/10/25 03:17:05;;;;;;;2.05;0.80;;;;;;;11.65;87.19;98232.69;5001861;28;20040;-89
2022/10/25 03:19:30;;;;;;;2.85;0.85;;;;;;;11.67;87.15;98222.75;5006819;28;20494;-90
2022/10/25 03:21:56;;;;;;;0.77;0.77;;;;;;;11.67;86.97;98230.63;4999353;28;20041;-89
2022/10/25 03:24:21;;;;;;;1.63;0.85;;;;;;;11.66;87.31;98223.78;5001871;28;20389;-89
2022/10/25 03:26:47;;;;;;;1.48;0.98;;;;;;;11.62;86.85;98230.44;4992017;28;20066;-89
2022/10/25 03:29:12;;;;;;;2.72;0.85;;;;;;;11.66;86.95;98231.66;5004257;28;20107;-89
2022/10/25 03:31:38;;;;;;;2.67;0.90;;;;;;;11.56;86.46;98221.53;5006097;28;20398;-90
2022/10/25 03:34:04;;;;;;;1.05;0.90;;;;;;;11.63;86.37;98226.78;5008882;28;20042;-90
2022/10/25 03:36:29;;;;;;;1.80;1.10;;;;;;;11.65;86.62;98230.03;4999990;28;20053;-90
2022/10/25 03:38:55;;;;;;;1.05;0.90;;;;;;;11.68;86.38;98242.75;5001323;28;20039;-89
2022/10/25 03:41:20;;;;;;;2.90;1.13;;;;;;;11.65;86.57;98235.31;4990324;28;20176;-89
2022/10/25 03:43:46;;;;;;;0.88;0.75;;;;;;;11.60;86.74;98243.78;5000058;28;20083;-89
2022/10/25 03:46:12;;;;;;;1.10;0.80;;;;;;;11.62;86.24;98240.94;4994181;28;20061;-89
2022/10/25 03:48:37;;;;;;;5.32;1.00;;;;;;;11.63;86.52;98232.03;5000507;28;20035;-90
2022/10/25 03:51:03;;;;;;;2.13;1.00;;;;;;;11.66;86.76;98247.41;4993564;28;20042;-89
2022/10/25 03:53:28;;;;;;;1.00;0.70;;;;;;;11.77;87.12;98250.25;5001341;28;20066;-89
2022/10/25 03:55:54;;;;;;;1.40;1.00;;;;;;;11.72;86.00;98242.16;4997014;28;20046;-89
2022/10/25 03:58:19;;;;;;;3.53;0.90;;;;;;;11.79;86.34;98247.41;5001634;28;20046;-89
2022/10/25 04:00:45;;;;;;;0.70;0.70;;;;;;;11.73;86.70;98246.41;5000430;28;20038;-89
2022/10/25 04:03:10;;;;;;;1.45;0.82;;;;;;;11.74;86.46;98255.09;4998370;28;20164;-89
2022/10/25 04:05:36;;;;;;;3.53;1.27;;;;;;;11.75;86.56;98254.91;4999834;28;20117;-89
2022/10/25 04:08:01;;;;;;;2.22;1.00;;;;;;;11.72;86.44;98250.03;4994590;28;20030;-90
2022/10/25 04:10:27;;;;;;;1.42;0.73;;;;;;;11.69;86.66;98247.00;5008303;28;20052;-90
2022/10/25 04:12:55;;;;;;;2.35;0.90;;;;;;;11.63;86.86;98251.25;5002989;28;20107;-90
2022/10/25 04:15:21;;;;;;;1.92;0.90;;;;;;;11.56;87.19;98241.75;5008944;28;20038;-90
2022/10/25 04:17:52;;;;;;;2.78;1.08;;;;;;;11.57;87.20;98251.25;4999186;28;20088;-89
2022/10/25 04:20:18;;;;;;;4.70;1.10;;;;;;;11.49;87.42;98255.69;4995414;28;20033;-89
2022/10/25 04:22:44;;;;;;;3.28;0.90;;;;;;;11.41;87.50;98248.03;5005541;28;20046;-89
2022/10/25 04:25:09;;;;;;;2.67;1.20;;;;;;;11.41;86.98;98247.22;5001444;28;20516;-89
2022/10/25 04:27:35;;;;;;;3.63;1.10;;;;;;;11.45;87.28;98251.03;4999077;28;20041;-89
2022/10/25 04:30:00;;;;;;;4.88;1.17;;;;;;;11.41;87.11;98244.59;4997465;28;20054;-89
2022/10/25 04:32:26;;;;;;;4.43;1.10;;;;;;;11.34;87.29;98238.53;5002730;28;20071;-90
2022/10/25 04:34:51;;;;;;;2.35;1.15;;;;;;;11.42;87.70;98244.38;5001867;28;20547;-89
2022/10/25 04:37:17;;;;;;;1.20;1.10;;;;;;;11.44;87.35;98252.84;4994857;28;20402;-89
2022/10/25 04:39:42;;;;;;;2.42;1.10;;;;;;;11.51;86.86;98269.47;4996346;28;20026;-89
2022/10/25 04:42:08;;;;;;;4.20;1.42;;;;;;;11.50;87.46;98264.38;5000943;28;20060;-89
2022/10/25 04:44:33;;;;;;;2.00;1.23;;;;;;;11.49;87.65;98263.56;4999803;28;20033;-89
2022/10/25 04:47:01;;;;;;;1.80;1.05;;;;;;;11.40;87.86;98264.78;4997518;28;20113;-89
2022/10/25 04:49:27;;;;;;;1.10;0.95;;;;;;;11.43;87.73;98264.38;5006953;28;20113;-90
2022/10/25 04:51:52;;;;;;;1.35;1.08;;;;;;;11.43;87.86;98261.75;5002448;28;20116;-89
2022/10/25 04:54:17;;;;;;;1.20;1.10;;;;;;;11.44;88.13;98260.72;5010652;28;20041;-89
2022/10/25 04:56:43;;;;;;;2.35;1.17;;;;;;;11.45;88.14;98264.97;5008236;28;20037;-89
2022/10/25 04:59:09;;;;;;;3.08;1.20;;;;;;;11.45;88.08;98256.28;5014254;28;20073;-89
2022/10/25 05:01:34;;;;;;;1.67;0.95;;;;;;;11.40;87.76;98256.91;5010354;28;20045;-89
2022/10/25 05:03:59;;;;;;;1.75;1.10;;;;;;;11.45;87.85;98258.91;5005731;28;20136;-89
2022/10/25 05:06:26;;;;;;;2.58;1.10;;;;;;;11.51;88.06;98269.47;4996234;28;20057;-89
2022/10/25 05:08:53;;;;;;;2.33;0.93;;;;;;;11.47;87.72;98260.34;5002312;28;20065;-89
2022/10/25 05:11:22;;;;;;;3.90;1.13;;;;;;;11.41;88.06;98274.28;5002210;28;20035;-90
2022/10/25 05:13:48;;;;;;;2.17;1.30;;;;;;;11.42;88.12;98281.16;4995778;28;20381;-89
2022/10/25 05:16:22;;;;;;;3.83;1.40;;;;;;;11.44;88.28;98280.94;4998264;28;20049;-89
2022/10/25 05:18:56;;;;;;;3.03;1.20;;;;;;;11.47;88.21;98286.63;4995122;28;20058;-89
2022/10/25 05:21:29;;;;;;;2.30;1.30;;;;;;;11.45;88.05;98283.34;5000415;28;20022;-89
2022/10/25 05:23:59;;;;;;;2.05;1.25;;;;;;;11.52;88.32;98293.91;5002598;28;20070;-89
2022/10/25 05:26:25;;;;;;;3.10;1.20;;;;;;;11.58;87.65;98297.53;4997439;28;20045;-89
2022/10/25 05:28:54;;;;;;;3.60;1.48;;;;;;;11.66;87.98;98295.50;5000311;28;20050;-88
2022/10/25 05:31:27;;;;;;;2.10;1.38;;;;;;;11.71;87.50;98293.09;4995836;28;20513;-88
2022/10/25 05:33:56;;;;;;;1.67;1.00;;;;;;;11.78;87.59;98304.41;5002999;28;20033;-88
2022/10/25 05:36:23;;;;;;;1.30;1.20;;;;;;;11.85;87.09;98307.06;4995505;28;20083;-87
2022/10/25 05:38:48;;;;;;;2.35;1.10;;;;;;;11.73;86.34;98287.63;4990925;28;20038;-88
2022/10/25 05:41:16;;;;;;;3.75;1.20;;;;;;;11.88;87.10;98298.78;5017608;28;20371;-88
2022/10/25 05:43:43;;;;;;;2.38;1.27;;;;;;;11.96;85.98;98305.66;4997967;28;20049;-89
2022/10/25 05:46:16;;;;;;;3.85;1.13;;;;;;;12.00;86.64;98309.50;5003284;28;20568;-89
2022/10/25 05:48:42;;;;;;;3.63;1.10;;;;;;;12.04;86.37;98310.69;4998337;28;20037;-89
2022/10/25 05:51:12;;;;;;;2.25;1.20;;;;;;;12.05;86.49;98310.50;4998014;28;20038;-89
2022/10/25 05:53:47;;;;;;;3.55;0.90;;;;;;;12.06;85.74;98313.94;4990733;28;20692;-90
2022/10/25 05:56:14;;;;;;;2.20;1.20;;;;;;;12.07;85.92;98317.38;5013133;28;20069;-89
2022/10/25 05:58:41;;;;;;;2.75;1.27;;;;;;;12.03;86.56;98319.59;5014441;28;20042;-89
2022/10/25 06:01:09;;;;;;;2.72;1.15;;;;;;;12.07;86.11;98323.44;5000300;28;20041;-89
2022/10/25 06:03:35;;;;;;;1.38;1.17;;;;;;;11.92;86.82;98302.63;5010922;28;20038;-89
2022/10/25 06:06:03;;;;;;;4.05;1.35;;;;;;;12.08;86.33;98329.50;5001249;28;20069;-89
2022/10/25 06:08:30;;;;;;;6.25;1.40;;;;;;;11.93;86.18;98321.81;4998590;28;20045;-89
2022/10/25 06:11:03;;;;;;;2.30;1.30;;;;;;;11.99;86.30;98332.31;5004761;28;20031;-89
2022/10/25 06:13:30;;;;;;;5.07;1.30;;;;;;;11.91;85.70;98319.41;4998785;28;20030;-89
2022/10/25 06:15:56;;;;;;;5.55;1.30;;;;;;;11.97;86.21;98321.22;4989559;28;20031;-89
2022/10/25 06:18:28;;;;;;;3.15;1.30;;;;;;;12.01;86.13;98326.88;4996515;28;20145;-89
2022/10/25 06:20:54;;;;;;;3.13;1.40;;;;;;;12.05;87.01;98333.34;4995708;28;20101;-89
2022/10/25 06:23:19;;;;;;;3.22;1.30;;;;;;;12.10;86.57;98345.88;5002728;28;20955;-89
2022/10/25 06:25:45;;;;;;;3.72;1.50;;;;;;;11.99;85.27;98342.03;4997941;28;20038;-89
2022/10/25 06:28:10;;;;;;;2.53;1.35;;;;;;;12.06;84.97;98356.00;5003695;28;20042;-89
2022/10/25 06:30:36;;;;;;;2.50;1.30;;;;;;;12.09;85.54;98352.16;4996382;28;20093;-89
2022/10/25 06:33:01;;;;;;;5.13;1.50;;;;;;;12.12;86.25;98357.03;5006424;28;20029;-90
2022/10/25 06:35:30;;;;;;;1.83;1.40;;;;;;;12.04;85.79;98350.94;4997944;28;20043;-89
2022/10/25 06:38:01;;;;;;;3.28;1.73;;;;;;;12.11;85.97;98344.88;5000832;28;20038;-90
2022/10/25 06:40:27;;;;;;;4.78;1.70;;;;;;;12.24;85.92;98350.94;4998884;28;20026;-89
2022/10/25 06:42:56;;;;;;;4.47;1.63;;;;;;;12.23;85.77;98353.75;5002341;28;20034;-88
2022/10/25 06:45:23;;;;;;;2.47;1.50;;;;;;;12.29;85.48;98352.94;5001630;28;20041;-90
2022/10/25 06:47:48;;;;;;;3.55;1.90;;;;;;;12.28;85.31;98346.06;5000714;28;20045;-90
2022/10/25 06:50:14;;;;;;;6.85;4.05;;;;;;;12.32;84.70;98347.28;5007789;28;20042;-89
2022/10/25 06:52:39;;;;;;;4.22;2.42;;;;;;;12.50;84.75;98355.34;5000987;28;20124;-90
2022/10/25 06:55:05;;;;;;;3.25;1.83;;;;;;;12.72;84.53;98361.19;5016074;28;20615;-90
2022/10/25 06:57:30;;;;;;;5.43;2.83;;;;;;;12.93;84.07;98373.25;4999072;28;20034;-90
2022/10/25 06:59:56;;;;;;;3.25;1.80;;;;;;;12.94;83.30;98363.53;5007728;28;20045;-89
2022/10/25 07:02:21;;;;;;;5.53;2.10;;;;;;;12.96;83.28;98359.69;4995451;28;20065;-90
2022/10/25 07:04:47;;;;;;;7.75;2.58;;;;;;;13.11;83.20;98360.22;5000484;28;20046;-90
2022/10/25 07:07:13;;;;;;;3.95;3.22;;;;;;;13.11;82.13;98368.13;5004438;28;20042;-90
2022/10/25 07:09:40;;;;;;;3.22;2.65;;;;;;;13.13;81.88;98352.94;4994246;28;20043;-89
2022/10/25 07:12:06;;;;;;;4.10;2.50;;;;;;;13.20;82.28;98370.53;4999550;28;20026;-90
2022/10/25 07:14:31;;;;;;;5.57;1.95;;;;;;;13.13;82.66;98370.53;5009530;28;20030;-90
2022/10/25 07:16:57;;;;;;;4.40;2.30;;;;;;;13.16;82.84;98364.06;5001130;28;20160;-90
2022/10/25 07:19:23;;;;;;;4.20;2.20;;;;;;;13.32;82.95;98384.69;4999474;28;20545;-89
2022/10/25 07:21:49;;;;;;;5.10;2.08;;;;;;;13.35;81.85;98377.16;4997066;28;20042;-89
2022/10/25 07:24:15;;;;;;;3.58;1.88;;;;;;;13.63;82.92;98392.63;4996300;28;20065;-89
2022/10/25 07:26:41;;;;;;;4.65;2.78;;;;;;;13.58;82.65;98373.19;4999665;28;20084;-89
2022/10/25 07:29:07;;;;;;;3.67;2.33;;;;;;;13.81;81.30;98399.03;4998125;28;20049;-89
2022/10/25 07:31:37;;;;;;;4.18;2.35;;;;;;;13.68;80.68;98389.38;4989661;28;20066;-88
2022/10/25 07:34:04;;;;;;;4.68;1.98;;;;;;;13.68;81.05;98383.28;5005637;28;20064;-89
2022/10/25 07:36:30;;;;;;;4.53;2.03;;;;;;;13.97;79.91;98392.41;4996770;28;20038;-89
2022/10/25 07:38:56;;;;;;;3.35;1.83;;;;;;;14.20;80.31;98393.44;4993994;28;20036;-89
2022/10/25 07:41:23;;;;;;;5.25;1.70;;;;;;;14.41;78.82;98389.63;5006002;28;20080;-88
2022/10/25 07:43:49;;;;;;;2.45;1.50;;;;;;;14.64;78.29;98386.41;4998844;28;20054;-89
2022/10/25 07:46:14;;;;;;;4.97;1.48;;;;;;;14.78;77.94;98379.13;4997289;28;20121;-88
2022/10/25 07:48:40;;;;;;;5.30;1.70;;;;;;;14.64;75.98;98378.47;4990728;28;20041;-89
2022/10/25 07:51:10;;;;;;;4.93;1.60;;;;;;;14.41;78.04;98394.09;5005951;28;20701;-89
2022/10/25 07:53:36;;;;;;;5.25;1.70;;;;;;;14.42;79.33;98395.72;5000742;28;20075;-89
2022/10/25 07:56:01;;;;;;;6.30;1.80;;;;;;;14.26;78.83;98391.78;5000360;28;20061;-88
2022/10/25 07:58:27;;;;;;;5.32;1.85;;;;;;;14.44;79.06;98402.38;5013267;28;20029;-88
2022/10/25 08:01:03;;;;;;;1.95;1.42;;;;;;;14.41;78.97;98399.38;4998614;28;20041;-88
2022/10/25 08:03:30;;;;;;;4.65;1.55;;;;;;;14.26;78.18;98401.53;5000350;28;20042;-88
2022/10/25 08:05:56;;;;;;;3.85;1.52;;;;;;;14.32;79.77;98403.28;5007050;28;20034;-88
2022/10/25 08:08:23;;;;;;;3.60;1.60;;;;;;;14.30;79.19;98408.00;4990443;28;20042;-89
2022/10/25 08:10:49;;;;;;;3.05;1.52;;;;;;;14.51;79.56;98404.97;4979746;28;20453;-88
2022/10/25 08:15:40;;;;;;;3.15;1.50;;;;;;;15.22;77.37;98407.06;4991844;28;20863;-89
2022/10/25 08:18:08;;;;;;;4.63;1.58;;;;;;;15.22;76.72;98408.91;4997334;28;20035;-88
2022/10/25 08:20:34;;;;;;;3.92;1.60;;;;;;;15.14;76.57;98410.03;4995648;28;20101;-89
2022/10/25 08:23:00;;;;;;;2.80;1.40;;;;;;;15.04;75.98;98412.38;4994928;28;20161;-88
2022/10/25 08:25:28;;;;;;;2.63;1.40;;;;;;;15.03;76.72;98408.13;5001984;28;20031;-89
2022/10/25 08:27:55;;;;;;;3.42;1.70;;;;;;;15.35;77.94;98415.88;4998783;28;20049;-89
2022/10/25 08:30:20;;;;;;;3.53;1.40;;;;;;;15.62;76.50;98417.19;4996811;28;20042;-89
2022/10/25 08:32:47;;;;;;;5.38;1.75;;;;;;;15.74;75.38;98414.59;5008784;28;20128;-89
2022/10/25 08:35:14;;;;;;;3.08;1.60;;;;;;;15.71;75.95;98415.03;4994597;28;20109;-89
2022/10/25 08:37:39;;;;;;;3.63;1.63;;;;;;;15.66;74.96;98423.66;4996537;28;20909;-88
2022/10/25 08:40:06;;;;;;;4.30;1.80;;;;;;;15.70;76.86;98419.50;4997558;28;20033;-89
2022/10/25 08:42:49;;;;;;;4.45;1.80;;;;;;;15.84;75.49;98424.63;4999202;28;20044;-89
2022/10/25 08:45:27;;;;;;;2.90;1.75;;;;;;;15.93;75.62;98425.91;4995550;28;20034;-89
2022/10/25 08:47:57;;;;;;;6.63;1.70;;;;;;;15.83;76.36;98420.34;4996227;28;20034;-89
2022/10/25 08:50:41;;;;;;;5.35;1.92;;;;;;;15.79;77.16;98423.47;4996039;28;20134;-88
2022/10/25 08:53:21;;;;;;;2.92;1.77;;;;;;;16.00;75.47;98421.31;5011139;28;20039;-89
2022/10/25 08:55:49;;;;;;;4.68;1.80;;;;;;;16.17;74.52;98430.22;4998054;28;20030;-89
2022/10/25 08:58:34;;;;;;;4.68;1.70;;;;;;;16.10;74.42;98410.19;4997839;28;20050;-89
2022/10/25 09:01:12;;;;;;;6.20;1.70;;;;;;;16.11;73.03;98425.84;4992348;28;20373;-89
2022/10/25 09:03:39;;;;;;;6.70;1.65;;;;;;;16.11;73.37;98423.19;4989997;28;22769;-90
2022/10/25 09:06:22;;;;;;;3.03;1.42;;;;;;;16.31;72.61;98426.34;4991095;28;20041;-89
2022/10/25 09:09:33;;;;;;;6.88;2.25;;;;;;;16.35;72.28;98420.59;4993121;28;20067;-88
2022/10/25 09:12:24;;;;;;;4.75;1.38;;;;;;;16.29;71.42;98420.47;4999909;28;20482;-90
2022/10/25 09:15:28;;;;;;;2.45;1.30;;;;;;;16.13;71.08;98418.47;4994122;28;20088;-88
2022/10/25 09:18:18;;;;;;;4.45;1.40;;;;;;;16.34;71.24;98417.13;4987807;28;20049;-89
2022/10/25 09:21:15;;;;;;;4.13;1.33;;;;;;;16.36;72.32;98420.34;4991516;28;20100;-87
2022/10/25 09:23:57;;;;;;;3.78;1.48;;;;;;;16.37;72.53;98423.81;4998667;28;20037;-89
2022/10/25 09:26:42;;;;;;;4.70;1.35;;;;;;;16.24;72.37;98425.63;4994967;28;20065;-89
2022/10/25 09:29:32;;;;;;;7.70;2.20;;;;;;;16.37;72.27;98416.66;4997118;28;20046;-89
2022/10/25 09:32:04;;;;;;;3.00;1.50;;;;;;;16.51;71.50;98423.38;4996925;28;20084;-89
2022/10/25 09:34:34;;;;;;;6.53;1.75;;;;;;;16.51;69.98;98433.97;4999525;28;20049;-89
2022/10/25 09:37:28;;;;;;;5.38;1.67;;;;;;;16.38;70.08;98430.72;4996707;28;20065;-89
2022/10/25 09:40:03;;;;;;;2.78;1.20;;;;;;;16.39;70.07;98421.75;4990044;28;20492;-89
2022/10/25 09:42:40;;;;;;;4.85;1.45;;;;;;;16.64;69.97;98430.28;4998578;28;20038;-88
2022/10/25 09:45:22;;;;;;;3.50;1.30;;;;;;;16.69;67.72;98427.75;4999478;28;20732;-87
2022/10/25 09:48:32;;;;;;;5.22;1.73;;;;;;;16.65;67.97;98431.88;4994555;28;20038;-88
2022/10/25 09:51:21;;;;;;;4.32;1.85;;;;;;;16.60;68.75;98427.28;4996118;28;20140;-88
2022/10/25 09:53:48;;;;;;;5.95;1.27;;;;;;;16.41;68.42;98420.47;4994052;28;20103;-88
2022/10/25 09:56:16;;;;;;;3.08;1.67;;;;;;;16.38;69.17;98431.53;4997167;28;20058;-88
2022/10/25 09:58:46;;;;;;;3.60;1.35;;;;;;;16.40;68.18;98439.25;4999613;28;20119;-88
2022/10/25 10:01:25;;;;;;;2.97;1.55;;;;;;;16.52;68.38;98437.41;4994264;28;20092;-88
2022/10/25 10:03:52;;;;;;;5.70;1.75;;;;;;;16.57;69.07;98424.28;4992230;28;20034;-88
2022/10/25 10:06:34;;;;;;;3.47;1.75;;;;;;;16.62;67.93;98440.31;4993096;28;20533;-88
2022/10/25 10:09:05;;;;;;;2.72;1.63;;;;;;;16.48;68.19;98437.06;4999428;28;20042;-89
2022/10/25 10:11:33;;;;;;;3.95;1.70;;;;;;;16.48;68.88;98450.28;5007157;28;20038;-89
2022/10/25 10:14:19;;;;;;;3.90;1.45;;;;;;;16.43;67.85;98444.06;4995581;28;20449;-89
2022/10/25 10:16:50;;;;;;;4.03;1.50;;;;;;;16.50;69.29;98440.28;4988906;28;20061;-90
2022/10/25 10:19:28;;;;;;;3.13;1.50;;;;;;;16.54;69.10;98448.56;5000061;28;20100;-88
2022/10/25 10:22:14;;;;;;;4.18;1.40;;;;;;;16.69;70.15;98448.13;4991360;28;20046;-89
2022/10/25 10:24:43;;;;;;;6.63;1.60;;;;;;;16.58;67.29;98452.38;4994254;28;20038;-89
2022/10/25 10:27:23;;;;;;;2.22;1.42;;;;;;;16.51;67.80;98444.56;4993802;28;20038;-88
2022/10/25 10:30:23;;;;;;;4.03;1.40;;;;;;;16.46;69.09;98448.91;4995732;28;20053;-88
2022/10/25 10:32:55;;;;;;;5.18;1.67;;;;;;;16.58;69.09;98434.66;4989389;28;20346;-89
2022/10/25 10:35:38;;;;;;;4.25;1.10;;;;;;;16.72;70.21;98435.25;4990987;28;20041;-89
2022/10/25 10:38:26;;;;;;;3.75;1.40;;;;;;;16.78;69.59;98430.88;4999812;28;20056;-88
2022/10/25 10:41:19;;;;;;;2.53;1.10;;;;;;;16.69;69.37;98417.16;4992277;28;20026;-88
2022/10/25 10:43:45;;;;;;;7.30;1.45;;;;;;;16.77;70.86;98434.56;5007370;28;20061;-89
2022/10/25 10:46:16;;;;;;;6.40;1.60;;;;;;;16.74;69.83;98430.53;5001137;28;20430;-88
2022/10/25 10:48:43;;;;;;;;;;;;;;;16.87;69.87;98434.00;4996730;28;20172;-89
2022/10/25 10:51:19;;;;;;;5.38;1.50;;;;;;;16.74;69.34;98421.78;4997128;28;19992;-88
2022/10/25 10:53:44;;;;;;;5.75;1.58;;;;;;;16.75;68.62;98426.06;5013437;28;20093;-88
2022/10/25 10:56:22;;;;;;;4.22;1.40;;;;;;;16.76;70.36;98423.16;4991213;28;20030;-89
2022/10/25 10:58:49;;;;;;;4.20;1.33;;;;;;;16.75;69.71;98434.00;4996435;28;20038;-88
2022/10/25 11:01:31;;;;;;;4.50;1.20;;;;;;;16.77;68.78;98438.00;4994607;28;20030;-89
2022/10/25 11:03:58;;;;;;;4.38;1.15;;;;;;;16.75;69.37;98437.44;4997267;28;20119;-87
2022/10/25 11:06:33;;;;;;;4.35;1.33;;;;;;;16.82;69.06;98434.69;4991427;28;20038;-89
2022/10/25 11:09:11;;;;;;;3.70;1.27;;;;;;;16.90;68.19;98433.50;4996799;28;20038;-88
2022/10/25 11:11:41;;;;;;;3.58;1.13;;;;;;;16.94;67.94;98438.13;4989734;28;20046;-88
2022/10/25 11:14:15;;;;;;;2.58;1.10;;;;;;;16.95;66.89;98436.28;4995610;28;20053;-88
2022/10/25 11:16:58;;;;;;;2.58;1.10;;;;;;;16.78;66.24;98428.22;4990015;28;20114;-88
2022/10/25 11:20:13;;;;;;;4.07;1.20;;;;;;;16.85;66.96;98427.09;4996067;28;20497;-88
2022/10/25 11:23:07;;;;;;;3.28;1.10;;;;;;;16.80;66.85;98429.63;4992773;28;20034;-88
2022/10/25 11:25:40;;;;;;;4.35;1.67;;;;;;;16.83;65.64;98429.16;4990821;28;20109;-88
2022/10/25 11:28:36;;;;;;;2.75;1.20;;;;;;;17.00;66.50;98426.59;4995700;28;20038;-88
2022/10/25 11:31:26;;;;;;;2.33;1.15;;;;;;;17.15;66.78;98428.75;5005206;28;20039;-89
2022/10/25 11:34:14;;;;;;;2.83;1.10;;;;;;;17.20;66.75;98422.75;4996948;28;20034;-89
2022/10/25 11:37:05;;;;;;;4.45;1.30;;;;;;;17.17;68.01;98413.44;4998456;28;20042;-88
2022/10/25 11:40:01;;;;;;;4.30;1.30;;;;;;;17.17;66.42;98416.09;4996091;28;20046;-86
2022/10/25 11:42:48;;;;;;;2.20;1.00;;;;;;;17.22;65.30;98426.81;4994346;28;20038;-87
2022/10/25 11:45:43;;;;;;;5.20;1.38;;;;;;;17.39;65.28;98421.53;4995017;28;20038;-88
2022/10/25 11:48:50;;;;;;;5.35;1.10;;;;;;;17.26;64.26;98412.00;4994179;28;20413;-88
2022/10/25 11:51:34;;;;;;;5.32;1.20;;;;;;;17.22;63.74;98421.50;4996656;28;20435;-88
2022/10/25 11:54:33;;;;;;;2.25;0.95;;;;;;;17.04;62.69;98429.59;4994332;28;20038;-88
2022/10/25 11:57:11;;;;;;;3.20;1.10;;;;;;;16.97;63.89;98413.84;4991284;28;20085;-88
2022/10/25 11:59:48;;;;;;;2.50;1.10;;;;;;;16.85;63.57;98413.00;4994116;28;20042;-89
2022/10/25 12:03:02;;;;;;;5.30;1.50;;;;;;;16.80;63.94;98408.44;4989370;28;20049;-88